Time;durP1;ratioP1;P1;durP2;ratioP2;P2;SDS_P1;SDS_P2;PMS_P1;PMS_P2;Temp;Humidity;BMP_temperature;BMP_pressure;BME280_temperature;BME280_humidity;BME280_pressure;Samples;Min_cycle;Max_cycle;Signal;HPM_P1;HPM_P2
2023/05/02 00:02:18;;;;;;;6.65;2.95;;;;;;;;;;4991053;28;20145;-74
2023/05/02 00:04:44;;;;;;;8.45;3.22;;;;;;;;;;4987250;28;20076;-74
2023/05/02 00:07:11;;;;;;;7.38;3.70;;;;;;;;;;4990692;28;20042;-74
2023/05/02 00:09:37;;;;;;;7.75;2.90;;;;;;;;;;5002700;28;20517;-74
2023/05/02 00:12:03;;;;;;;8.82;3.30;;;;;;;;;;5003715;28;20045;-74
2023/05/02 00:14:29;;;;;;;7.18;3.20;;;;;;;;;;4994622;28;20489;-74
2023/05/02 00:16:55;;;;;;;11.20;3.63;;;;;;;;;;5011682;28;20053;-74
2023/05/02 00:19:21;;;;;;;9.50;3.67;;;;;;;;;;5009413;28;20049;-74
2023/05/02 00:21:48;;;;;;;11.55;4.20;;;;;;;;;;4997127;28;20414;-74
2023/05/02 00:24:15;;;;;;;8.13;3.85;;;;;;;;;;5005089;28;20060;-74
2023/05/02 00:26:41;;;;;;;9.25;3.75;;;;;;;;;;5005137;28;20057;-74
2023/05/02 00:29:07;;;;;;;11.38;3.67;;;;;;;;;;5009343;28;20041;-74
2023/05/02 00:31:34;;;;;;;12.30;4.20;;;;;;;;;;5010059;28;20125;-74
2023/05/02 00:34:00;;;;;;;9.18;4.10;;;;;;;;;;4993097;28;20176;-74
2023/05/02 00:36:26;;;;;;;14.15;4.05;;;;;;;;;;4990778;28;20120;-74
2023/05/02 00:38:52;;;;;;;10.77;3.67;;;;;;;;;;4999532;28;20038;-74
2023/05/02 00:41:18;;;;;;;11.65;4.70;;;;;;;;;;5008600;28;20076;-74
2023/05/02 00:43:44;;;;;;;11.30;4.70;;;;;;;;;;5011052;28;20046;-74
2023/05/02 00:46:11;;;;;;;9.55;3.75;;;;;;;;;;4991840;28;20041;-74
2023/05/02 00:48:37;;;;;;;9.50;4.05;;;;;;;;;;4991603;28;20049;-74
2023/05/02 00:51:04;;;;;;;9.65;3.47;;;;;;;;;;4993578;28;20086;-74
2023/05/02 00:53:31;;;;;;;11.18;4.32;;;;;;;;;;5008502;28;20049;-74
2023/05/02 00:56:01;;;;;;;11.50;4.88;;;;;;;;;;4989842;28;20054;-74
2023/05/02 00:58:27;;;;;;;19.02;4.47;;;;;;;;;;4989904;28;20046;-74
2023/05/02 01:01:07;;;;;;;12.40;4.30;;;;;;;;;;4993900;28;20033;-74
2023/05/02 01:03:52;;;;;;;9.90;3.90;;;;;;;;;;5008932;28;20140;-74
2023/05/02 01:06:21;;;;;;;12.40;3.80;;;;;;;;;;5010977;28;20097;-74
2023/05/02 01:08:51;;;;;;;12.27;3.95;;;;;;;;;;5008484;28;20041;-74
2023/05/02 01:11:32;;;;;;;12.00;4.68;;;;;;;;;;5007918;28;20535;-74
2023/05/02 01:13:59;;;;;;;13.57;4.07;;;;;;;;;;5002050;28;20045;-74
2023/05/02 01:16:25;;;;;;;10.13;3.80;;;;;;;;;;5011433;28;20405;-74
2023/05/02 01:18:51;;;;;;;14.38;4.13;;;;;;;;;;4992208;28;20064;-74
2023/05/02 01:21:17;;;;;;;15.70;4.35;;;;;;;;;;4991833;28;20772;-74
2023/05/02 01:23:52;;;;;;;14.20;4.40;;;;;;;;;;4992120;28;20046;-74
2023/05/02 01:26:25;;;;;;;14.35;4.70;;;;;;;;;;5009965;28;20050;-74
2023/05/02 01:28:58;;;;;;;11.38;4.60;;;;;;;;;;5003721;28;20039;-74
2023/05/02 01:31:25;;;;;;;;;;;;;;;;;;5006450;28;20116;-74
2023/05/02 01:33:51;;;;;;;13.15;4.43;;;;;;;;;;4997837;28;19944;-74
2023/05/02 01:36:18;;;;;;;12.02;3.70;;;;;;;;;;4993013;28;20864;-74
2023/05/02 01:38:45;;;;;;;14.90;4.57;;;;;;;;;;4993248;28;20786;-74
2023/05/02 01:41:11;;;;;;;15.98;5.18;;;;;;;;;;5007031;28;20556;-74
2023/05/02 01:43:41;;;;;;;12.60;4.50;;;;;;;;;;4991364;28;20493;-74
2023/05/02 01:46:08;;;;;;;15.88;4.85;;;;;;;;;;4990738;28;20041;-74
2023/05/02 01:48:35;;;;;;;14.35;5.22;;;;;;;;;;5012248;28;20072;-74
2023/05/02 01:51:02;;;;;;;12.52;4.45;;;;;;;;;;5009822;28;20035;-74
2023/05/02 01:53:29;;;;;;;15.00;5.50;;;;;;;;;;5005110;28;20050;-74
2023/05/02 01:55:56;;;;;;;16.38;4.35;;;;;;;;;;5008517;28;20038;-74
2023/05/02 01:58:23;;;;;;;18.92;4.65;;;;;;;;;;5011497;28;20046;-74
2023/05/02 02:00:50;;;;;;;16.35;5.03;;;;;;;;;;5012308;28;20128;-74
2023/05/02 02:03:17;;;;;;;12.82;5.30;;;;;;;;;;4995073;28;20053;-74
2023/05/02 02:05:43;;;;;;;17.98;5.57;;;;;;;;;;5011322;28;20433;-74
2023/05/02 02:08:09;;;;;;;16.38;5.22;;;;;;;;;;4987698;28;20048;-74
2023/05/02 02:10:39;;;;;;;10.48;4.38;;;;;;;;;;4993509;28;20053;-74
2023/05/02 02:13:17;;;;;;;14.55;3.95;;;;;;;;;;5013611;28;20053;-74
2023/05/02 02:15:47;;;;;;;16.42;5.10;;;;;;;;;;4993639;28;20049;-74
2023/05/02 02:18:15;;;;;;;17.38;4.60;;;;;;;;;;4991722;28;20108;-74
2023/05/02 02:20:43;;;;;;;17.65;5.05;;;;;;;;;;5000426;28;20133;-74
2023/05/02 02:23:10;;;;;;;10.50;4.10;;;;;;;;;;5004526;28;20049;-74
2023/05/02 02:25:37;;;;;;;12.02;3.92;;;;;;;;;;4988901;28;20047;-74
2023/05/02 02:28:03;;;;;;;12.20;4.30;;;;;;;;;;5012666;28;20497;-74
2023/05/02 02:30:29;;;;;;;11.23;3.85;;;;;;;;;;5013742;28;20067;-74
2023/05/02 02:32:55;;;;;;;17.10;4.55;;;;;;;;;;5009329;28;20509;-74
2023/05/02 02:35:22;;;;;;;13.93;3.80;;;;;;;;;;5010593;28;20128;-74
2023/05/02 02:37:51;;;;;;;12.25;3.90;;;;;;;;;;4995091;28;20104;-74
2023/05/02 02:40:21;;;;;;;13.00;3.50;;;;;;;;;;5012330;28;20091;-74
2023/05/02 02:42:59;;;;;;;12.90;3.22;;;;;;;;;;5009683;28;20085;-74
2023/05/02 02:45:38;;;;;;;11.15;3.15;;;;;;;;;;5008668;28;20046;-74
2023/05/02 02:48:26;;;;;;;9.05;3.00;;;;;;;;;;4992435;28;20054;-74
2023/05/02 02:51:02;;;;;;;6.80;3.00;;;;;;;;;;4994409;28;20077;-74
2023/05/02 02:53:40;;;;;;;8.10;3.42;;;;;;;;;;5010878;28;20045;-74
2023/05/02 02:56:11;;;;;;;9.75;3.25;;;;;;;;;;5010931;28;20136;-73
2023/05/02 02:58:47;;;;;;;10.40;3.38;;;;;;;;;;5011195;28;20041;-74
2023/05/02 03:01:24;;;;;;;8.75;3.15;;;;;;;;;;5008496;28;20052;-74
2023/05/02 03:03:51;;;;;;;8.05;3.00;;;;;;;;;;4982921;28;20050;-74
2023/05/02 03:06:18;;;;;;;11.40;3.00;;;;;;;;;;4993042;28;20119;-74
2023/05/02 03:08:44;;;;;;;6.57;2.45;;;;;;;;;;5011286;28;20041;-74
2023/05/02 03:11:10;;;;;;;8.88;2.80;;;;;;;;;;4992800;28;20046;-74
2023/05/02 03:13:36;;;;;;;6.70;2.95;;;;;;;;;;4995241;28;20050;-74
2023/05/02 03:16:06;;;;;;;7.25;2.67;;;;;;;;;;4994916;28;20520;-74
2023/05/02 03:18:32;;;;;;;5.93;2.90;;;;;;;;;;4994609;28;20041;-74
2023/05/02 03:20:58;;;;;;;7.22;3.05;;;;;;;;;;4988790;28;20489;-74
2023/05/02 03:23:24;;;;;;;8.00;3.10;;;;;;;;;;5007311;28;20052;-74
2023/05/02 03:25:51;;;;;;;8.90;3.80;;;;;;;;;;4992886;28;20058;-74
2023/05/02 03:28:17;;;;;;;8.40;3.17;;;;;;;;;;5006196;28;20046;-74
2023/05/02 03:30:43;;;;;;;7.68;2.80;;;;;;;;;;5013728;28;20497;-74
2023/05/02 03:33:09;;;;;;;8.05;3.05;;;;;;;;;;5009782;28;20046;-74
2023/05/02 03:35:35;;;;;;;10.20;3.50;;;;;;;;;;4986438;28;20046;-74
2023/05/02 03:38:01;;;;;;;11.60;3.50;;;;;;;;;;5003859;28;20044;-74
2023/05/02 03:40:27;;;;;;;9.60;3.45;;;;;;;;;;5009600;28;20386;-74
2023/05/02 03:42:53;;;;;;;12.40;4.07;;;;;;;;;;4991006;28;20034;-74
2023/05/02 03:45:19;;;;;;;9.60;3.20;;;;;;;;;;4998582;28;20053;-74
2023/05/02 03:47:45;;;;;;;10.02;3.65;;;;;;;;;;5010943;28;20046;-74
2023/05/02 03:50:11;;;;;;;9.73;3.05;;;;;;;;;;5006849;28;20069;-74
2023/05/02 03:52:37;;;;;;;13.55;3.67;;;;;;;;;;5011286;28;20401;-74
2023/05/02 03:55:06;;;;;;;10.77;2.97;;;;;;;;;;5009849;28;20056;-74
2023/05/02 03:57:32;;;;;;;6.63;2.90;;;;;;;;;;4991102;28;20064;-74
2023/05/02 03:59:59;;;;;;;6.00;2.90;;;;;;;;;;5000888;28;20054;-74
2023/05/02 04:02:25;;;;;;;9.88;3.42;;;;;;;;;;4988032;28;20048;-74
2023/05/02 04:04:51;;;;;;;11.20;3.00;;;;;;;;;;4989573;28;20064;-74
2023/05/02 04:07:18;;;;;;;7.53;3.20;;;;;;;;;;4990938;28;20570;-74
2023/05/02 04:09:44;;;;;;;7.88;3.05;;;;;;;;;;5009149;28;20045;-74
2023/05/02 04:12:11;;;;;;;7.63;3.25;;;;;;;;;;5007891;28;20046;-74
2023/05/02 04:14:36;;;;;;;8.27;3.05;;;;;;;;;;5007583;28;20482;-74
2023/05/02 04:17:03;;;;;;;8.10;3.08;;;;;;;;;;5007831;28;20129;-74
2023/05/02 04:19:30;;;;;;;8.73;3.05;;;;;;;;;;5004428;28;20088;-74
2023/05/02 04:21:56;;;;;;;4.45;3.00;;;;;;;;;;5008011;28;20065;-74
2023/05/02 04:24:22;;;;;;;8.63;2.80;;;;;;;;;;4983604;28;20041;-74
2023/05/02 04:26:48;;;;;;;8.05;2.83;;;;;;;;;;5011562;28;20100;-74
2023/05/02 04:29:14;;;;;;;4.95;2.72;;;;;;;;;;5009372;28;20129;-74
2023/05/02 04:31:40;;;;;;;5.18;2.65;;;;;;;;;;5004991;28;20517;-74
2023/05/02 04:34:06;;;;;;;7.70;2.85;;;;;;;;;;4981583;28;20049;-74
2023/05/02 04:36:33;;;;;;;7.78;2.80;;;;;;;;;;5011100;28;20085;-74
2023/05/02 04:38:59;;;;;;;5.32;2.65;;;;;;;;;;4991217;28;20085;-74
2023/05/02 04:41:25;;;;;;;9.15;2.60;;;;;;;;;;5006105;28;20046;-74
2023/05/02 04:43:51;;;;;;;7.13;2.72;;;;;;;;;;5011235;28;20042;-81
2023/05/02 04:46:17;;;;;;;6.43;3.47;;;;;;;;;;5001981;28;20363;-80
2023/05/02 04:48:43;;;;;;;6.38;2.67;;;;;;;;;;4989808;28;20077;-78
2023/05/02 04:51:10;;;;;;;6.18;2.53;;;;;;;;;;4991707;28;20054;-80
2023/05/02 04:53:36;;;;;;;7.85;3.05;;;;;;;;;;4988592;28;20498;-80
2023/05/02 04:56:02;;;;;;;4.38;2.28;;;;;;;;;;5008135;28;20072;-80
2023/05/02 04:58:28;;;;;;;4.88;2.33;;;;;;;;;;4993999;28;20470;-80
2023/05/02 05:00:54;;;;;;;4.60;2.30;;;;;;;;;;4990776;28;20402;-80
2023/05/02 05:03:20;;;;;;;4.72;2.20;;;;;;;;;;4993501;28;20111;-80
2023/05/02 05:05:46;;;;;;;5.57;2.55;;;;;;;;;;5009736;28;20042;-80
2023/05/02 05:08:12;;;;;;;8.10;2.85;;;;;;;;;;4991263;28;20599;-80
2023/05/02 05:10:39;;;;;;;4.78;2.60;;;;;;;;;;4994398;28;20402;-80
2023/05/02 05:13:05;;;;;;;9.45;2.63;;;;;;;;;;4993871;28;20073;-80
2023/05/02 05:15:31;;;;;;;5.88;2.45;;;;;;;;;;4991798;28;20536;-80
2023/05/02 05:17:57;;;;;;;6.75;2.63;;;;;;;;;;5012450;28;20050;-80
2023/05/02 05:20:24;;;;;;;6.43;2.80;;;;;;;;;;4983726;28;20055;-80
2023/05/02 05:22:50;;;;;;;8.55;2.85;;;;;;;;;;4987008;28;20100;-80
2023/05/02 05:25:16;;;;;;;8.52;2.60;;;;;;;;;;5010291;28;20038;-80
2023/05/02 05:27:42;;;;;;;7.28;2.53;;;;;;;;;;4991174;28;20402;-80
2023/05/02 05:30:08;;;;;;;7.78;2.67;;;;;;;;;;5002696;28;20049;-80
2023/05/02 05:32:34;;;;;;;6.93;2.72;;;;;;;;;;4980141;28;20051;-80
2023/05/02 05:35:01;;;;;;;9.38;3.40;;;;;;;;;;4988793;28;20057;-80
2023/05/02 05:37:27;;;;;;;7.38;3.13;;;;;;;;;;4992890;28;20180;-80
2023/05/02 05:39:53;;;;;;;8.95;3.05;;;;;;;;;;4987024;28;20165;-80
2023/05/02 05:42:19;;;;;;;6.10;2.97;;;;;;;;;;5006619;28;20562;-80
2023/05/02 05:44:45;;;;;;;12.25;3.00;;;;;;;;;;5009445;28;20053;-80
2023/05/02 05:47:11;;;;;;;5.18;2.92;;;;;;;;;;5007675;28;20042;-80
2023/05/02 05:49:37;;;;;;;6.95;2.65;;;;;;;;;;5008853;28;20081;-80
2023/05/02 05:52:03;;;;;;;6.68;2.78;;;;;;;;;;5007496;28;20173;-79
2023/05/02 05:54:29;;;;;;;9.38;2.97;;;;;;;;;;4998053;28;20056;-80
2023/05/02 05:56:55;;;;;;;7.70;2.70;;;;;;;;;;4985721;28;20058;-80
2023/05/02 05:59:21;;;;;;;6.28;2.88;;;;;;;;;;4983792;28;20429;-80
2023/05/02 06:01:47;;;;;;;6.15;2.60;;;;;;;;;;4991416;28;20121;-80
2023/05/02 06:04:13;;;;;;;4.75;2.67;;;;;;;;;;5006164;28;20081;-80
2023/05/02 06:06:39;;;;;;;7.72;2.90;;;;;;;;;;5008714;28;20092;-80
2023/05/02 06:09:05;;;;;;;11.13;3.30;;;;;;;;;;4991856;28;20626;-80
2023/05/02 06:11:31;;;;;;;7.55;2.42;;;;;;;;;;4984411;28;20084;-80
2023/05/02 06:13:57;;;;;;;7.80;3.22;;;;;;;;;;4988570;28;20046;-80
2023/05/02 06:16:23;;;;;;;14.73;3.50;;;;;;;;;;4992274;28;20505;-80
2023/05/02 06:18:53;;;;;;;9.55;3.47;;;;;;;;;;4993189;28;20061;-80
2023/05/02 06:21:19;;;;;;;11.15;3.30;;;;;;;;;;4977786;28;20058;-80
2023/05/02 06:23:45;;;;;;;8.98;3.22;;;;;;;;;;5005908;28;20049;-80
2023/05/02 06:26:11;;;;;;;6.38;2.90;;;;;;;;;;4994397;28;20042;-80
2023/05/02 06:28:37;;;;;;;7.88;3.15;;;;;;;;;;4991857;28;20066;-80
2023/05/02 06:31:04;;;;;;;8.55;3.42;;;;;;;;;;4993864;28;20094;-80
2023/05/02 06:33:31;;;;;;;8.48;3.15;;;;;;;;;;4992235;28;20061;-80
2023/05/02 06:35:57;;;;;;;10.10;3.30;;;;;;;;;;5009395;28;20421;-80
2023/05/02 06:38:24;;;;;;;15.30;3.25;;;;;;;;;;4995165;28;20045;-79
2023/05/02 06:40:50;;;;;;;7.43;3.63;;;;;;;;;;5011561;28;20126;-80
2023/05/02 06:43:16;;;;;;;6.00;2.90;;;;;;;;;;5012564;28;20125;-79
2023/05/02 06:45:42;;;;;;;9.60;3.00;;;;;;;;;;4998634;28;20046;-80
2023/05/02 06:48:09;;;;;;;4.75;3.00;;;;;;;;;;5006288;28;20458;-80
2023/05/02 06:50:35;;;;;;;6.78;3.10;;;;;;;;;;4987114;28;20042;-80
2023/05/02 06:53:01;;;;;;;9.38;3.35;;;;;;;;;;5005734;28;20050;-80
2023/05/02 06:55:28;;;;;;;9.25;3.10;;;;;;;;;;4991553;28;20054;-80
2023/05/02 06:57:54;;;;;;;8.45;3.50;;;;;;;;;;4993395;28;20061;-80
2023/05/02 07:00:20;;;;;;;10.88;3.92;;;;;;;;;;5005441;28;20137;-79
2023/05/02 07:02:47;;;;;;;11.27;3.70;;;;;;;;;;4993703;28;20152;-80
2023/05/02 07:05:14;;;;;;;9.82;3.63;;;;;;;;;;5013338;28;20050;-80
2023/05/02 07:07:41;;;;;;;8.55;4.22;;;;;;;;;;4996178;28;20077;-80
2023/05/02 07:10:07;;;;;;;11.52;3.42;;;;;;;;;;4992407;28;20095;-80
2023/05/02 07:12:33;;;;;;;7.22;3.22;;;;;;;;;;5011256;28;20409;-80
2023/05/02 07:14:59;;;;;;;5.70;3.13;;;;;;;;;;5010801;28;20041;-80
2023/05/02 07:17:25;;;;;;;11.93;3.70;;;;;;;;;;4994923;28;20042;-80
2023/05/02 07:19:51;;;;;;;5.80;3.42;;;;;;;;;;4991187;28;20474;-79
2023/05/02 07:22:17;;;;;;;6.60;3.00;;;;;;;;;;5008115;28;20064;-80
2023/05/02 07:24:43;;;;;;;22.98;4.22;;;;;;;;;;4987322;28;20728;-80
2023/05/02 07:27:10;;;;;;;9.50;4.10;;;;;;;;;;4986180;28;20133;-79
2023/05/02 07:29:36;;;;;;;7.60;3.47;;;;;;;;;;4988279;28;20050;-80
2023/05/02 07:32:02;;;;;;;13.32;3.13;;;;;;;;;;5008216;28;20034;-79
2023/05/02 07:34:29;;;;;;;8.20;3.58;;;;;;;;;;4990115;28;20522;-80
2023/05/02 07:36:55;;;;;;;8.77;3.40;;;;;;;;;;5007702;28;20052;-80
2023/05/02 07:39:21;;;;;;;24.48;4.20;;;;;;;;;;5007274;28;20052;-80
2023/05/02 07:41:47;;;;;;;9.57;3.00;;;;;;;;;;5006656;28;22557;-80
2023/05/02 07:44:13;;;;;;;7.95;3.47;;;;;;;;;;4984044;28;20486;-80
2023/05/02 07:46:39;;;;;;;4.20;2.80;;;;;;;;;;4987102;28;20155;-80
2023/05/02 07:49:05;;;;;;;10.98;3.10;;;;;;;;;;5001153;28;20079;-79
2023/05/02 07:51:31;;;;;;;7.40;2.95;;;;;;;;;;4992222;28;20454;-79
2023/05/02 07:53:58;;;;;;;8.20;3.08;;;;;;;;;;5005757;28;20054;-79
2023/05/02 07:56:24;;;;;;;5.57;2.90;;;;;;;;;;5003346;28;20054;-80
2023/05/02 07:58:51;;;;;;;12.38;3.25;;;;;;;;;;4985433;28;20408;-80
2023/05/02 08:01:17;;;;;;;9.68;3.35;;;;;;;;;;5002510;28;20038;-80
2023/05/02 08:03:43;;;;;;;9.75;3.45;;;;;;;;;;4990875;28;20083;-80
2023/05/02 08:06:09;;;;;;;8.15;3.78;;;;;;;;;;5007612;28;20062;-80
2023/05/02 08:08:36;;;;;;;6.50;3.35;;;;;;;;;;4990247;28;20049;-79
2023/05/02 08:11:03;;;;;;;6.80;2.80;;;;;;;;;;4987416;28;20065;-79
2023/05/02 08:13:29;;;;;;;8.90;3.33;;;;;;;;;;5006982;28;20149;-80
2023/05/02 08:15:58;;;;;;;5.65;2.40;;;;;;;;;;4980512;28;20248;-80
2023/05/02 08:18:24;;;;;;;4.97;2.67;;;;;;;;;;5006027;28;20042;-79
2023/05/02 08:20:50;;;;;;;4.70;3.00;;;;;;;;;;5008896;28;20555;-79
2023/05/02 08:23:16;;;;;;;10.77;3.30;;;;;;;;;;4992095;28;20054;-79
2023/05/02 08:25:42;;;;;;;4.57;2.80;;;;;;;;;;4992191;28;20033;-79
2023/05/02 08:28:08;;;;;;;8.30;3.05;;;;;;;;;;4992502;28;20099;-79
2023/05/02 08:30:34;;;;;;;6.50;3.13;;;;;;;;;;5004908;28;20034;-79
2023/05/02 08:33:00;;;;;;;11.02;3.47;;;;;;;;;;4991021;28;20046;-79
2023/05/02 08:35:29;;;;;;;12.13;3.33;;;;;;;;;;4990466;28;20060;-79
2023/05/02 08:37:55;;;;;;;12.27;3.38;;;;;;;;;;4993689;28;20751;-79
2023/05/02 08:40:21;;;;;;;12.13;3.22;;;;;;;;;;4990173;28;20069;-79
2023/05/02 08:42:47;;;;;;;7.63;2.90;;;;;;;;;;4992997;28;20092;-79
2023/05/02 08:45:14;;;;;;;7.28;3.47;;;;;;;;;;4986798;28;20124;-79
2023/05/02 08:47:41;;;;;;;6.05;2.75;;;;;;;;;;5008297;28;20065;-79
2023/05/02 08:50:08;;;;;;;10.95;3.25;;;;;;;;;;5008006;28;20046;-79
2023/05/02 08:52:35;;;;;;;8.75;2.67;;;;;;;;;;4993504;28;20494;-79
2023/05/02 08:55:01;;;;;;;5.25;2.67;;;;;;;;;;4983056;28;20563;-79
2023/05/02 08:57:29;;;;;;;18.38;4.57;;;;;;;;;;5008192;28;20104;-79
2023/05/02 08:59:55;;;;;;;15.98;3.80;;;;;;;;;;4984914;28;20100;-79
2023/05/02 09:02:27;;;;;;;3.58;2.13;;;;;;;;;;4989159;28;20126;-79
2023/05/02 09:04:55;;;;;;;5.50;2.45;;;;;;;;;;4991806;28;20081;-79
2023/05/02 09:07:21;;;;;;;9.77;3.08;;;;;;;;;;4992447;28;20094;-80
2023/05/02 09:09:47;;;;;;;11.02;2.90;;;;;;;;;;4993158;28;20053;-80
2023/05/02 09:12:15;;;;;;;4.65;2.20;;;;;;;;;;5006713;28;20382;-79
2023/05/02 09:14:43;;;;;;;3.55;2.22;;;;;;;;;;5003098;28;20046;-80
2023/05/02 09:17:09;;;;;;;5.57;2.47;;;;;;;;;;5002541;28;20056;-79
2023/05/02 09:19:35;;;;;;;6.13;2.28;;;;;;;;;;5008114;28;20037;-79
2023/05/02 09:22:01;;;;;;;3.20;1.92;;;;;;;;;;4986954;28;20054;-81
2023/05/02 09:24:28;;;;;;;5.78;2.30;;;;;;;;;;5004926;28;20045;-73
2023/05/02 09:26:57;;;;;;;3.63;2.10;;;;;;;;;;5002915;28;20054;-80
2023/05/02 09:29:24;;;;;;;5.57;2.05;;;;;;;;;;4987377;28;20402;-80
2023/05/02 09:31:50;;;;;;;26.63;3.25;;;;;;;;;;4988174;28;20128;-82
2023/05/02 09:34:16;;;;;;;4.07;2.20;;;;;;;;;;4987362;28;20038;-80
2023/05/02 09:36:46;;;;;;;5.93;2.20;;;;;;;;;;5001885;28;20072;-79
2023/05/02 09:39:14;;;;;;;5.05;2.20;;;;;;;;;;4986524;28;20065;-79
2023/05/02 09:41:44;;;;;;;4.82;2.05;;;;;;;;;;4989948;28;20063;-79
2023/05/02 09:44:14;;;;;;;4.63;2.20;;;;;;;;;;4985058;28;20566;-79
2023/05/02 09:47:01;;;;;;;2.78;1.80;;;;;;;;;;5006764;28;20065;-80
2023/05/02 09:49:48;;;;;;;5.53;2.33;;;;;;;;;;4989767;28;20054;-80
2023/05/02 09:52:15;;;;;;;5.13;2.35;;;;;;;;;;5005190;28;20376;-79
2023/05/02 09:54:41;;;;;;;32.40;3.92;;;;;;;;;;4991784;28;20041;-82
2023/05/02 09:57:09;;;;;;;4.07;1.90;;;;;;;;;;5009775;28;20058;-81
2023/05/02 09:59:35;;;;;;;2.03;1.80;;;;;;;;;;4994289;28;20501;-81
2023/05/02 10:02:03;;;;;;;5.18;2.58;;;;;;;;;;4992067;28;20053;-82
2023/05/02 10:04:30;;;;;;;2.88;2.38;;;;;;;;;;4991362;28;20556;-82
2023/05/02 10:06:57;;;;;;;3.00;1.88;;;;;;;;;;5007674;28;20042;-83
2023/05/02 10:09:23;;;;;;;3.90;2.00;;;;;;;;;;4992549;28;20165;-84
2023/05/02 10:11:52;;;;;;;3.72;2.20;;;;;;;;;;4994036;28;20041;-84
2023/05/02 10:14:19;;;;;;;2.55;2.05;;;;;;;;;;5007678;28;20053;-84
2023/05/02 10:16:55;;;;;;;4.18;2.00;;;;;;;;;;5008563;28;20041;-84
2023/05/02 10:19:27;;;;;;;6.28;2.08;;;;;;;;;;4987329;28;20069;-83
2023/05/02 10:21:54;;;;;;;4.15;1.98;;;;;;;;;;5007193;28;20113;-83
2023/05/02 10:24:20;;;;;;;5.57;1.98;;;;;;;;;;5010660;28;20108;-84
2023/05/02 10:26:47;;;;;;;3.42;1.83;;;;;;;;;;5008451;28;20029;-83
2023/05/02 10:29:13;;;;;;;5.72;2.33;;;;;;;;;;4989663;28;20045;-83
2023/05/02 10:31:41;;;;;;;4.88;2.05;;;;;;;;;;4989186;28;20054;-84
2023/05/02 10:34:09;;;;;;;4.50;2.10;;;;;;;;;;5009081;28;20068;-84
2023/05/02 10:36:35;;;;;;;4.82;1.92;;;;;;;;;;4992473;28;20041;-83
2023/05/02 10:39:02;;;;;;;4.40;2.20;;;;;;;;;;4990864;28;20038;-83
2023/05/02 10:41:30;;;;;;;3.90;2.03;;;;;;;;;;5010614;28;20910;-84
2023/05/02 10:43:57;;;;;;;6.85;2.63;;;;;;;;;;4988679;28;20048;-83
2023/05/02 10:46:32;;;;;;;3.67;1.90;;;;;;;;;;4992367;28;20050;-83
2023/05/02 10:49:06;;;;;;;3.90;2.10;;;;;;;;;;4996685;28;20148;-83
2023/05/02 10:51:33;;;;;;;3.95;2.30;;;;;;;;;;5007802;28;20095;-83
2023/05/02 10:54:25;;;;;;;2.20;2.00;;;;;;;;;;4994172;28;20054;-83
2023/05/02 10:57:02;;;;;;;4.63;1.77;;;;;;;;;;5001009;28;20556;-83
2023/05/02 10:59:32;;;;;;;5.70;1.90;;;;;;;;;;4993072;28;20390;-83
2023/05/02 11:01:58;;;;;;;5.35;2.65;;;;;;;;;;5001832;28;20465;-83
2023/05/02 11:04:24;;;;;;;3.38;2.05;;;;;;;;;;5000316;28;20054;-83
2023/05/02 11:06:59;;;;;;;8.00;2.60;;;;;;;;;;4990551;28;20037;-83
2023/05/02 11:09:28;;;;;;;3.83;2.10;;;;;;;;;;5010156;28;20148;-83
2023/05/02 11:11:55;;;;;;;5.28;2.13;;;;;;;;;;5011049;28;20385;-83
2023/05/02 11:14:24;;;;;;;4.60;2.22;;;;;;;;;;5008200;28;20089;-83
2023/05/02 11:17:03;;;;;;;5.13;2.30;;;;;;;;;;4991679;28;20050;-83
2023/05/02 11:19:30;;;;;;;5.80;2.30;;;;;;;;;;4987719;28;20041;-83
2023/05/02 11:22:15;;;;;;;6.93;2.40;;;;;;;;;;5003726;28;20120;-83
2023/05/02 11:24:43;;;;;;;3.53;1.85;;;;;;;;;;5008896;28;20080;-83
2023/05/02 11:27:38;;;;;;;7.38;2.22;;;;;;;;;;5005524;28;20100;-84
2023/05/02 11:30:08;;;;;;;2.88;1.80;;;;;;;;;;4988388;28;20160;-84
2023/05/02 11:32:50;;;;;;;4.43;1.70;;;;;;;;;;5007884;28;20069;-84
2023/05/02 11:35:24;;;;;;;2.83;2.00;;;;;;;;;;4990221;28;20053;-84
2023/05/02 11:37:54;;;;;;;4.53;2.03;;;;;;;;;;5000603;28;20105;-84
2023/05/02 11:40:20;;;;;;;5.78;1.98;;;;;;;;;;4990088;28;20046;-84
2023/05/02 11:42:47;;;;;;;5.07;2.25;;;;;;;;;;4991968;28;20042;-84
2023/05/02 11:45:13;;;;;;;4.05;2.05;;;;;;;;;;4987309;28;20052;-84
2023/05/02 11:47:40;;;;;;;5.20;2.47;;;;;;;;;;4990663;28;20045;-83
2023/05/02 11:50:06;;;;;;;5.40;2.30;;;;;;;;;;4979146;28;20109;-84
2023/05/02 11:52:39;;;;;;;4.13;2.30;;;;;;;;;;4985369;28;20045;-83
2023/05/02 11:55:07;;;;;;;4.75;2.22;;;;;;;;;;5002126;28;20046;-83
2023/05/02 11:57:33;;;;;;;4.80;2.05;;;;;;;;;;4991709;28;20058;-84
2023/05/02 13:33:36;;;;;;;2.65;1.70;;;;;;;;;;5104767;27;20439;-67
2023/05/02 13:36:02;;;;;;;4.18;1.95;;;;;;;;;;5107582;28;20134;-67
2023/05/02 13:38:28;;;;;;;4.15;1.92;;;;;;;;;;5093425;28;20071;-69
2023/05/02 13:40:54;;;;;;;5.00;2.00;;;;;;;;;;5103939;28;20120;-67
2023/05/02 13:43:20;;;;;;;6.15;2.00;;;;;;;;;;5101235;28;20040;-67
2023/05/02 13:45:47;;;;;;;2.78;1.92;;;;;;;;;;5095172;28;20040;-67
2023/05/02 13:48:14;;;;;;;2.85;1.80;;;;;;;;;;5097295;28;20518;-67
2023/05/02 13:50:40;;;;;;;6.30;2.00;;;;;;;;;;5063959;28;20142;-67
2023/05/02 13:53:06;;;;;;;7.68;2.15;;;;;;;;;;5107173;28;20063;-68
2023/05/02 13:55:32;;;;;;;4.22;2.00;;;;;;;;;;5095659;28;20071;-67
2023/05/02 13:57:58;;;;;;;4.07;1.80;;;;;;;;;;5096801;28;20044;-67
2023/05/02 14:00:26;;;;;;;2.85;1.80;;;;;;;;;;5090714;28;20052;-68
2023/05/02 14:02:53;;;;;;;6.95;2.22;;;;;;;;;;5100179;28;20494;-68
2023/05/02 14:05:19;;;;;;;3.35;2.20;;;;;;;;;;5095916;28;20044;-68
2023/05/02 14:07:45;;;;;;;3.17;2.22;;;;;;;;;;5100615;28;20039;-67
2023/05/02 14:10:11;;;;;;;5.57;2.00;;;;;;;;;;5104961;28;20036;-67
2023/05/02 14:12:37;;;;;;;2.72;1.90;;;;;;;;;;5082563;28;20379;-68
2023/05/02 14:15:03;;;;;;;6.88;1.70;;;;;;;;;;5099435;28;20407;-68
2023/05/02 14:17:30;;;;;;;3.95;1.88;;;;;;;;;;5090210;28;20055;-68
2023/05/02 14:19:56;;;;;;;5.55;2.13;;;;;;;;;;5084287;28;20052;-69
2023/05/02 14:22:22;;;;;;;3.72;1.92;;;;;;;;;;5102244;28;20051;-68
2023/05/02 14:24:48;;;;;;;3.70;1.77;;;;;;;;;;5094832;28;20044;-67
2023/05/02 14:27:17;;;;;;;2.95;2.00;;;;;;;;;;5081931;28;20134;-70
2023/05/02 14:29:47;;;;;;;1.80;1.70;;;;;;;;;;5097465;28;20089;-67
2023/05/02 14:32:13;;;;;;;1.77;1.55;;;;;;;;;;5071096;28;20088;-67
2023/05/02 14:34:40;;;;;;;2.08;1.50;;;;;;;;;;5082645;28;20071;-67
2023/05/02 14:37:07;;;;;;;1.88;1.52;;;;;;;;;;5077366;28;20511;-67
2023/05/02 14:39:35;;;;;;;2.10;1.88;;;;;;;;;;5077174;28;20404;-67
2023/05/02 14:42:03;;;;;;;4.47;1.80;;;;;;;;;;5076252;28;20086;-67
2023/05/02 14:44:29;;;;;;;3.25;1.70;;;;;;;;;;5080778;28;20109;-67
2023/05/02 14:46:55;;;;;;;2.67;1.90;;;;;;;;;;5079609;28;20089;-68
2023/05/02 14:49:22;;;;;;;1.83;1.58;;;;;;;;;;5084228;28;20119;-68
2023/05/02 14:51:49;;;;;;;3.40;2.10;;;;;;;;;;5078382;28;20482;-67
2023/05/02 14:54:15;;;;;;;2.13;1.70;;;;;;;;;;5081957;28;20525;-67
2023/05/02 14:56:41;;;;;;;2.35;1.65;;;;;;;;;;5086266;28;20430;-68
2023/05/02 14:59:07;;;;;;;3.38;1.60;;;;;;;;;;5077266;28;20111;-67
2023/05/02 15:01:34;;;;;;;2.05;1.60;;;;;;;;;;5078124;28;20070;-68
2023/05/02 15:04:00;;;;;;;3.90;1.90;;;;;;;;;;5085277;28;20082;-69
2023/05/02 15:06:30;;;;;;;3.10;2.08;;;;;;;;;;5054652;28;20076;-68
2023/05/02 15:08:56;;;;;;;3.28;1.70;;;;;;;;;;5084386;28;20590;-68
2023/05/02 15:11:25;;;;;;;2.08;1.70;;;;;;;;;;5073404;28;20044;-68
2023/05/02 15:13:51;;;;;;;5.38;1.92;;;;;;;;;;5086217;28;20059;-68
2023/05/02 15:16:17;;;;;;;3.05;1.80;;;;;;;;;;5082883;28;20474;-68
2023/05/02 15:18:44;;;;;;;1.92;1.50;;;;;;;;;;5075091;28;20449;-68
2023/05/02 15:21:10;;;;;;;1.60;1.50;;;;;;;;;;5080556;28;20092;-68
2023/05/02 15:23:36;;;;;;;2.50;1.70;;;;;;;;;;5087407;28;20036;-69
2023/05/02 15:26:03;;;;;;;4.22;1.65;;;;;;;;;;5077011;28;20052;-68
2023/05/02 15:28:29;;;;;;;2.30;1.58;;;;;;;;;;5083873;28;20116;-69
2023/05/02 15:30:55;;;;;;;4.35;1.67;;;;;;;;;;5083739;28;20048;-68
2023/05/02 15:33:21;;;;;;;2.97;1.88;;;;;;;;;;5081693;28;20044;-68
2023/05/02 15:35:54;;;;;;;2.50;1.60;;;;;;;;;;5078583;28;20047;-68
2023/05/02 15:38:21;;;;;;;3.97;1.83;;;;;;;;;;5057859;28;20075;-68
2023/05/02 15:40:57;;;;;;;3.88;1.90;;;;;;;;;;5078635;28;20041;-68
2023/05/02 15:43:23;;;;;;;2.28;1.60;;;;;;;;;;5081210;28;20044;-68
2023/05/02 15:45:59;;;;;;;2.95;1.80;;;;;;;;;;5080155;28;20135;-68
2023/05/02 15:48:29;;;;;;;3.10;1.80;;;;;;;;;;5061341;28;20048;-69
2023/05/02 15:50:55;;;;;;;5.72;2.08;;;;;;;;;;5061433;28;20113;-69
2023/05/02 15:53:21;;;;;;;2.08;1.70;;;;;;;;;;5079191;28;20484;-69
2023/05/02 15:55:48;;;;;;;2.70;1.70;;;;;;;;;;5075604;28;20078;-69
2023/05/02 15:58:15;;;;;;;1.70;1.60;;;;;;;;;;5079778;28;20085;-68
2023/05/02 16:00:41;;;;;;;2.72;1.58;;;;;;;;;;5066031;28;20480;-68
2023/05/02 16:03:07;;;;;;;2.95;1.80;;;;;;;;;;5082628;28;20368;-69
2023/05/02 16:05:34;;;;;;;2.85;1.60;;;;;;;;;;5078204;28;20403;-69
2023/05/02 16:08:00;;;;;;;2.47;1.75;;;;;;;;;;5088239;28;20044;-68
2023/05/02 16:10:26;;;;;;;3.30;1.80;;;;;;;;;;5082188;28;20132;-69
2023/05/02 16:12:52;;;;;;;4.03;1.73;;;;;;;;;;5064490;28;20040;-68
2023/05/02 16:15:19;;;;;;;3.20;1.40;;;;;;;;;;5081068;28;20040;-69
2023/05/02 16:17:45;;;;;;;2.78;1.77;;;;;;;;;;5063179;28;20507;-69